Barking Sands Airport Kekaha US
ICAO: PHBK
IATA:
Category: Medium
Scheduled Services:

Elevation: 23 ft
TransAlt. 18000 ft.

Airport Communications:
HONOLULU CNTR:126.5
RANGE OUTRIDER:32.285
TWR:126.2
UNICOM:122.8

PHBK Zoom In..

If Map Doesn't Load, Click Here

Runways:

(A) RW 16 length 6002 ft width 146 ft
---- / hdg 160

(B) RW 34 length 6002 ft width 146 ft
---- / hdg 340

Location; PHBK
Day. 23 / Time. 07.56 Zulu
* Altimeter: 29.91
* Temperature: 25° c. 77°f.
* Wind from: 140° Speed 05 kn.
Dewpoint: 21° c.
Visibility: 10 Statute Miles.
Clouds: Clear (automated report).

PHBK 230756Z AUTO 14005KT 10SM CLR 25/21 A2991 RMK AO2 SLP129 T02500211


Wind From 140°
Speed 05 kn.

 
 
jpsmedia.com for Web Design worldairports.se 2018   terms of use